sensor_id;sensor_type;location;lat;lon;timestamp;P1;durP1;ratioP1;P2;durP2;ratioP2
55362;SDS011;41244;49.242;9.060;2023-11-19T00:01:40;11.30;;;8.95;;
55362;SDS011;41244;49.242;9.060;2023-11-19T00:04:05;10.85;;;8.00;;
55362;SDS011;41244;49.242;9.060;2023-11-19T00:06:31;13.45;;;10.63;;
55362;SDS011;41244;49.242;9.060;2023-11-19T00:08:57;10.07;;;8.80;;
55362;SDS011;41244;49.242;9.060;2023-11-19T00:11:23;11.30;;;10.10;;
55362;SDS011;41244;49.242;9.060;2023-11-19T00:13:49;9.32;;;8.38;;
55362;SDS011;41244;49.242;9.060;2023-11-19T00:16:15;8.55;;;6.78;;
55362;SDS011;41244;49.242;9.060;2023-11-19T00:18:41;9.85;;;7.25;;
55362;SDS011;41244;49.242;9.060;2023-11-19T00:21:07;8.55;;;6.88;;
55362;SDS011;41244;49.242;9.060;2023-11-19T00:23:34;10.02;;;7.60;;
55362;SDS011;41244;49.242;9.060;2023-11-19T00:26:00;8.57;;;6.72;;
55362;SDS011;41244;49.242;9.060;2023-11-19T00:28:26;10.50;;;7.32;;
55362;SDS011;41244;49.242;9.060;2023-11-19T00:30:52;8.00;;;7.25;;
55362;SDS011;41244;49.242;9.060;2023-11-19T00:33:18;8.80;;;7.90;;
55362;SDS011;41244;49.242;9.060;2023-11-19T00:35:43;10.10;;;8.85;;
55362;SDS011;41244;49.242;9.060;2023-11-19T00:38:09;17.15;;;11.75;;
55362;SDS011;41244;49.242;9.060;2023-11-19T00:40:35;14.23;;;10.00;;
55362;SDS011;41244;49.242;9.060;2023-11-19T00:43:01;10.27;;;8.43;;
55362;SDS011;41244;49.242;9.060;2023-11-19T00:45:27;12.63;;;8.50;;
55362;SDS011;41244;49.242;9.060;2023-11-19T00:47:53;10.48;;;8.48;;
55362;SDS011;41244;49.242;9.060;2023-11-19T00:50:18;10.75;;;8.85;;
55362;SDS011;41244;49.242;9.060;2023-11-19T00:52:44;10.40;;;9.05;;
55362;SDS011;41244;49.242;9.060;2023-11-19T00:55:10;10.85;;;9.35;;
55362;SDS011;41244;49.242;9.060;2023-11-19T00:57:36;10.90;;;9.48;;
55362;SDS011;41244;49.242;9.060;2023-11-19T01:00:02;10.10;;;8.98;;
55362;SDS011;41244;49.242;9.060;2023-11-19T01:02:43;15.93;;;10.35;;
55362;SDS011;41244;49.242;9.060;2023-11-19T01:05:10;11.60;;;10.40;;
55362;SDS011;41244;49.242;9.060;2023-11-19T01:07:39;12.13;;;10.15;;
55362;SDS011;41244;49.242;9.060;2023-11-19T01:10:05;11.35;;;10.20;;
55362;SDS011;41244;49.242;9.060;2023-11-19T01:12:33;13.45;;;10.88;;
55362;SDS011;41244;49.242;9.060;2023-11-19T01:14:59;19.80;;;14.68;;
55362;SDS011;41244;49.242;9.060;2023-11-19T01:17:26;26.50;;;17.35;;
55362;SDS011;41244;49.242;9.060;2023-11-19T01:19:51;28.67;;;18.20;;
55362;SDS011;41244;49.242;9.060;2023-11-19T01:22:17;17.90;;;13.95;;
55362;SDS011;41244;49.242;9.060;2023-11-19T01:24:44;14.73;;;12.48;;
55362;SDS011;41244;49.242;9.060;2023-11-19T01:27:09;15.52;;;11.10;;
55362;SDS011;41244;49.242;9.060;2023-11-19T01:29:35;18.45;;;13.23;;
55362;SDS011;41244;49.242;9.060;2023-11-19T01:32:03;12.77;;;11.25;;
55362;SDS011;41244;49.242;9.060;2023-11-19T01:34:29;13.05;;;11.23;;
55362;SDS011;41244;49.242;9.060;2023-11-19T01:36:55;12.45;;;11.18;;
55362;SDS011;41244;49.242;9.060;2023-11-19T01:39:20;13.30;;;11.20;;
55362;SDS011;41244;49.242;9.060;2023-11-19T01:41:46;11.50;;;10.30;;
55362;SDS011;41244;49.242;9.060;2023-11-19T01:44:12;13.85;;;11.35;;
55362;SDS011;41244;49.242;9.060;2023-11-19T01:46:38;13.98;;;11.32;;
55362;SDS011;41244;49.242;9.060;2023-11-19T01:49:06;13.50;;;11.75;;
55362;SDS011;41244;49.242;9.060;2023-11-19T01:51:33;12.52;;;11.05;;
55362;SDS011;41244;49.242;9.060;2023-11-19T01:53:59;13.68;;;11.70;;
55362;SDS011;41244;49.242;9.060;2023-11-19T01:56:25;11.25;;;10.10;;
55362;SDS011;41244;49.242;9.060;2023-11-19T01:58:51;15.50;;;13.73;;
55362;SDS011;41244;49.242;9.060;2023-11-19T02:01:19;28.90;;;21.40;;
55362;SDS011;41244;49.242;9.060;2023-11-19T02:03:45;21.95;;;16.85;;
55362;SDS011;41244;49.242;9.060;2023-11-19T02:06:12;18.25;;;14.50;;
55362;SDS011;41244;49.242;9.060;2023-11-19T02:08:38;23.88;;;17.35;;
55362;SDS011;41244;49.242;9.060;2023-11-19T02:11:04;18.10;;;14.57;;
55362;SDS011;41244;49.242;9.060;2023-11-19T02:13:32;14.07;;;12.45;;
55362;SDS011;41244;49.242;9.060;2023-11-19T02:15:58;15.70;;;12.23;;
55362;SDS011;41244;49.242;9.060;2023-11-19T02:18:25;14.02;;;11.65;;
55362;SDS011;41244;49.242;9.060;2023-11-19T02:20:56;14.98;;;12.10;;
55362;SDS011;41244;49.242;9.060;2023-11-19T02:23:25;14.10;;;12.60;;
55362;SDS011;41244;49.242;9.060;2023-11-19T02:26:39;15.73;;;13.55;;
55362;SDS011;41244;49.242;9.060;2023-11-19T02:28:50;15.77;;;14.07;;
55362;SDS011;41244;49.242;9.060;2023-11-19T02:31:17;22.45;;;17.50;;
55362;SDS011;41244;49.242;9.060;2023-11-19T02:33:44;18.45;;;15.90;;
55362;SDS011;41244;49.242;9.060;2023-11-19T02:36:10;19.50;;;16.25;;
55362;SDS011;41244;49.242;9.060;2023-11-19T02:38:35;23.63;;;20.33;;
55362;SDS011;41244;49.242;9.060;2023-11-19T02:41:02;17.92;;;14.30;;
55362;SDS011;41244;49.242;9.060;2023-11-19T02:43:31;17.17;;;14.32;;
55362;SDS011;41244;49.242;9.060;2023-11-19T02:45:59;14.35;;;12.82;;
55362;SDS011;41244;49.242;9.060;2023-11-19T02:48:29;17.73;;;12.68;;
55362;SDS011;41244;49.242;9.060;2023-11-19T02:50:55;13.95;;;12.45;;
55362;SDS011;41244;49.242;9.060;2023-11-19T02:53:23;17.13;;;14.27;;
55362;SDS011;41244;49.242;9.060;2023-11-19T02:55:52;18.55;;;15.27;;
55362;SDS011;41244;49.242;9.060;2023-11-19T02:58:18;19.35;;;17.25;;
55362;SDS011;41244;49.242;9.060;2023-11-19T03:00:49;18.92;;;16.38;;
55362;SDS011;41244;49.242;9.060;2023-11-19T03:03:27;17.90;;;14.68;;
55362;SDS011;41244;49.242;9.060;2023-11-19T03:05:56;19.90;;;16.55;;
55362;SDS011;41244;49.242;9.060;2023-11-19T03:08:22;19.35;;;15.95;;
55362;SDS011;41244;49.242;9.060;2023-11-19T03:10:48;20.73;;;17.15;;
55362;SDS011;41244;49.242;9.060;2023-11-19T03:13:14;17.42;;;15.27;;
55362;SDS011;41244;49.242;9.060;2023-11-19T03:15:40;18.13;;;15.00;;
55362;SDS011;41244;49.242;9.060;2023-11-19T03:18:06;18.27;;;14.55;;
55362;SDS011;41244;49.242;9.060;2023-11-19T03:20:32;20.45;;;14.82;;
55362;SDS011;41244;49.242;9.060;2023-11-19T03:22:58;16.90;;;14.20;;
55362;SDS011;41244;49.242;9.060;2023-11-19T03:25:25;20.15;;;17.02;;
55362;SDS011;41244;49.242;9.060;2023-11-19T03:28:01;21.13;;;16.00;;
55362;SDS011;41244;49.242;9.060;2023-11-19T03:30:28;18.52;;;16.15;;
55362;SDS011;41244;49.242;9.060;2023-11-19T03:32:55;21.20;;;17.17;;
55362;SDS011;41244;49.242;9.060;2023-11-19T03:35:22;19.02;;;15.65;;
55362;SDS011;41244;49.242;9.060;2023-11-19T03:37:48;21.15;;;16.55;;
55362;SDS011;41244;49.242;9.060;2023-11-19T03:40:14;19.48;;;15.95;;
55362;SDS011;41244;49.242;9.060;2023-11-19T03:42:40;17.08;;;14.35;;
55362;SDS011;41244;49.242;9.060;2023-11-19T03:45:09;22.17;;;19.10;;
55362;SDS011;41244;49.242;9.060;2023-11-19T03:47:35;20.38;;;16.77;;
55362;SDS011;41244;49.242;9.060;2023-11-19T03:50:01;15.48;;;13.10;;
55362;SDS011;41244;49.242;9.060;2023-11-19T03:52:28;11.40;;;9.38;;
55362;SDS011;41244;49.242;9.060;2023-11-19T03:54:57;9.07;;;7.20;;
55362;SDS011;41244;49.242;9.060;2023-11-19T03:57:23;9.00;;;6.85;;
55362;SDS011;41244;49.242;9.060;2023-11-19T03:59:49;5.50;;;4.13;;
55362;SDS011;41244;49.242;9.060;2023-11-19T04:02:15;6.03;;;4.30;;
55362;SDS011;41244;49.242;9.060;2023-11-19T04:04:41;5.13;;;4.25;;
55362;SDS011;41244;49.242;9.060;2023-11-19T04:07:07;4.22;;;3.83;;
55362;SDS011;41244;49.242;9.060;2023-11-19T04:09:32;3.55;;;3.25;;
55362;SDS011;41244;49.242;9.060;2023-11-19T04:11:59;3.20;;;2.90;;
55362;SDS011;41244;49.242;9.060;2023-11-19T04:14:25;2.50;;;2.30;;
55362;SDS011;41244;49.242;9.060;2023-11-19T04:16:51;2.67;;;2.47;;
55362;SDS011;41244;49.242;9.060;2023-11-19T04:19:18;2.58;;;2.05;;
55362;SDS011;41244;49.242;9.060;2023-11-19T04:21:44;2.88;;;2.20;;
55362;SDS011;41244;49.242;9.060;2023-11-19T04:24:10;2.20;;;2.08;;
55362;SDS011;41244;49.242;9.060;2023-11-19T04:26:41;2.00;;;1.88;;
55362;SDS011;41244;49.242;9.060;2023-11-19T04:29:10;2.22;;;2.03;;
55362;SDS011;41244;49.242;9.060;2023-11-19T04:31:37;2.45;;;2.00;;
55362;SDS011;41244;49.242;9.060;2023-11-19T04:34:04;2.00;;;1.90;;
55362;SDS011;41244;49.242;9.060;2023-11-19T04:36:31;3.92;;;2.10;;
55362;SDS011;41244;49.242;9.060;2023-11-19T04:39:00;3.92;;;2.00;;
55362;SDS011;41244;49.242;9.060;2023-11-19T04:41:26;2.20;;;2.10;;
55362;SDS011;41244;49.242;9.060;2023-11-19T04:43:55;2.15;;;1.98;;
55362;SDS011;41244;49.242;9.060;2023-11-19T04:46:21;3.78;;;2.20;;
55362;SDS011;41244;49.242;9.060;2023-11-19T04:48:48;2.97;;;2.30;;
55362;SDS011;41244;49.242;9.060;2023-11-19T04:51:15;2.55;;;2.35;;
55362;SDS011;41244;49.242;9.060;2023-11-19T04:53:40;2.08;;;1.98;;
55362;SDS011;41244;49.242;9.060;2023-11-19T04:56:10;5.75;;;2.40;;
55362;SDS011;41244;49.242;9.060;2023-11-19T04:58:36;4.47;;;3.30;;
55362;SDS011;41244;49.242;9.060;2023-11-19T05:01:05;2.70;;;2.50;;
55362;SDS011;41244;49.242;9.060;2023-11-19T05:03:31;3.20;;;2.67;;
55362;SDS011;41244;49.242;9.060;2023-11-19T05:05:57;6.38;;;2.72;;
55362;SDS011;41244;49.242;9.060;2023-11-19T05:08:24;2.63;;;2.40;;
55362;SDS011;41244;49.242;9.060;2023-11-19T05:10:50;5.35;;;2.50;;
55362;SDS011;41244;49.242;9.060;2023-11-19T05:13:15;4.22;;;2.60;;
55362;SDS011;41244;49.242;9.060;2023-11-19T05:15:42;3.63;;;2.47;;
55362;SDS011;41244;49.242;9.060;2023-11-19T05:18:07;4.32;;;2.65;;
55362;SDS011;41244;49.242;9.060;2023-11-19T05:20:33;5.00;;;3.03;;
55362;SDS011;41244;49.242;9.060;2023-11-19T05:22:59;2.50;;;2.33;;
55362;SDS011;41244;49.242;9.060;2023-11-19T05:25:25;3.17;;;2.65;;
55362;SDS011;41244;49.242;9.060;2023-11-19T05:27:52;2.45;;;2.25;;
55362;SDS011;41244;49.242;9.060;2023-11-19T05:30:18;3.20;;;2.50;;
55362;SDS011;41244;49.242;9.060;2023-11-19T05:32:44;2.97;;;2.50;;
55362;SDS011;41244;49.242;9.060;2023-11-19T05:35:10;3.88;;;2.50;;
55362;SDS011;41244;49.242;9.060;2023-11-19T05:37:36;3.85;;;2.70;;
55362;SDS011;41244;49.242;9.060;2023-11-19T05:40:02;3.30;;;2.55;;
55362;SDS011;41244;49.242;9.060;2023-11-19T05:42:31;4.47;;;2.45;;
55362;SDS011;41244;49.242;9.060;2023-11-19T05:44:57;3.03;;;2.60;;
55362;SDS011;41244;49.242;9.060;2023-11-19T05:47:23;3.22;;;2.50;;
55362;SDS011;41244;49.242;9.060;2023-11-19T05:49:49;2.60;;;2.40;;
55362;SDS011;41244;49.242;9.060;2023-11-19T05:52:14;2.63;;;2.40;;
55362;SDS011;41244;49.242;9.060;2023-11-19T05:54:40;3.70;;;2.40;;
55362;SDS011;41244;49.242;9.060;2023-11-19T05:57:06;3.13;;;2.40;;
55362;SDS011;41244;49.242;9.060;2023-11-19T05:59:35;2.95;;;2.47;;
55362;SDS011;41244;49.242;9.060;2023-11-19T06:02:04;2.42;;;2.22;;
55362;SDS011;41244;49.242;9.060;2023-11-19T06:04:30;2.58;;;2.38;;
55362;SDS011;41244;49.242;9.060;2023-11-19T06:06:56;2.50;;;2.30;;
55362;SDS011;41244;49.242;9.060;2023-11-19T06:09:22;2.67;;;2.30;;
55362;SDS011;41244;49.242;9.060;2023-11-19T06:11:51;3.25;;;2.53;;
55362;SDS011;41244;49.242;9.060;2023-11-19T06:14:17;3.28;;;2.40;;
55362;SDS011;41244;49.242;9.060;2023-11-19T06:16:43;4.00;;;3.00;;
55362;SDS011;41244;49.242;9.060;2023-11-19T06:19:09;4.18;;;3.42;;
55362;SDS011;41244;49.242;9.060;2023-11-19T06:21:36;2.80;;;2.50;;
55362;SDS011;41244;49.242;9.060;2023-11-19T06:24:02;12.63;;;2.60;;
55362;SDS011;41244;49.242;9.060;2023-11-19T06:26:28;4.88;;;2.30;;
55362;SDS011;41244;49.242;9.060;2023-11-19T06:28:54;2.67;;;2.10;;
55362;SDS011;41244;49.242;9.060;2023-11-19T06:31:20;3.03;;;2.65;;
55362;SDS011;41244;49.242;9.060;2023-11-19T06:33:46;2.60;;;2.40;;
55362;SDS011;41244;49.242;9.060;2023-11-19T06:36:14;2.95;;;2.20;;
55362;SDS011;41244;49.242;9.060;2023-11-19T06:38:41;2.50;;;1.90;;
55362;SDS011;41244;49.242;9.060;2023-11-19T06:41:08;3.17;;;2.83;;
55362;SDS011;41244;49.242;9.060;2023-11-19T06:43:34;2.60;;;2.00;;
55362;SDS011;41244;49.242;9.060;2023-11-19T06:46:01;1.92;;;1.83;;
55362;SDS011;41244;49.242;9.060;2023-11-19T06:48:30;2.03;;;1.90;;
55362;SDS011;41244;49.242;9.060;2023-11-19T06:50:57;3.05;;;2.00;;
55362;SDS011;41244;49.242;9.060;2023-11-19T06:53:24;2.35;;;2.00;;
55362;SDS011;41244;49.242;9.060;2023-11-19T06:55:50;1.92;;;1.80;;
55362;SDS011;41244;49.242;9.060;2023-11-19T06:58:15;2.00;;;1.90;;
55362;SDS011;41244;49.242;9.060;2023-11-19T07:00:43;1.98;;;1.80;;
55362;SDS011;41244;49.242;9.060;2023-11-19T07:03:08;2.22;;;2.00;;
55362;SDS011;41244;49.242;9.060;2023-11-19T07:05:35;5.22;;;2.08;;
55362;SDS011;41244;49.242;9.060;2023-11-19T07:08:03;1.75;;;1.65;;
55362;SDS011;41244;49.242;9.060;2023-11-19T07:10:32;1.80;;;1.55;;
55362;SDS011;41244;49.242;9.060;2023-11-19T07:12:58;2.05;;;1.85;;
55362;SDS011;41244;49.242;9.060;2023-11-19T07:15:25;3.83;;;2.20;;
55362;SDS011;41244;49.242;9.060;2023-11-19T07:17:50;2.20;;;2.00;;
55362;SDS011;41244;49.242;9.060;2023-11-19T07:20:18;1.52;;;1.42;;
55362;SDS011;41244;49.242;9.060;2023-11-19T07:22:44;2.67;;;1.88;;
55362;SDS011;41244;49.242;9.060;2023-11-19T07:25:11;1.70;;;1.60;;
55362;SDS011;41244;49.242;9.060;2023-11-19T07:27:38;2.50;;;1.88;;
55362;SDS011;41244;49.242;9.060;2023-11-19T07:30:05;1.75;;;1.65;;
55362;SDS011;41244;49.242;9.060;2023-11-19T07:32:32;2.78;;;1.85;;
55362;SDS011;41244;49.242;9.060;2023-11-19T07:34:58;2.78;;;1.92;;
55362;SDS011;41244;49.242;9.060;2023-11-19T07:37:24;2.03;;;1.85;;
55362;SDS011;41244;49.242;9.060;2023-11-19T07:39:50;2.25;;;2.00;;
55362;SDS011;41244;49.242;9.060;2023-11-19T07:42:16;1.77;;;1.67;;
55362;SDS011;41244;49.242;9.060;2023-11-19T07:44:43;2.88;;;1.80;;
55362;SDS011;41244;49.242;9.060;2023-11-19T07:47:09;2.00;;;1.90;;
55362;SDS011;41244;49.242;9.060;2023-11-19T07:49:35;3.70;;;1.75;;
55362;SDS011;41244;49.242;9.060;2023-11-19T07:52:00;2.35;;;2.15;;
55362;SDS011;41244;49.242;9.060;2023-11-19T07:54:28;2.20;;;2.08;;
55362;SDS011;41244;49.242;9.060;2023-11-19T07:56:53;2.58;;;1.98;;
55362;SDS011;41244;49.242;9.060;2023-11-19T07:59:19;2.33;;;1.77;;
55362;SDS011;41244;49.242;9.060;2023-11-19T08:01:45;4.47;;;2.15;;
55362;SDS011;41244;49.242;9.060;2023-11-19T08:04:11;2.75;;;1.40;;
55362;SDS011;41244;49.242;9.060;2023-11-19T08:06:37;3.65;;;2.47;;
55362;SDS011;41244;49.242;9.060;2023-11-19T08:09:03;2.35;;;1.90;;
55362;SDS011;41244;49.242;9.060;2023-11-19T08:11:29;1.92;;;1.80;;
55362;SDS011;41244;49.242;9.060;2023-11-19T08:13:55;2.90;;;2.70;;
55362;SDS011;41244;49.242;9.060;2023-11-19T08:16:20;2.88;;;1.75;;
55362;SDS011;41244;49.242;9.060;2023-11-19T08:18:46;2.10;;;1.90;;
55362;SDS011;41244;49.242;9.060;2023-11-19T08:21:12;2.50;;;2.30;;
55362;SDS011;41244;49.242;9.060;2023-11-19T08:23:38;5.53;;;1.88;;
55362;SDS011;41244;49.242;9.060;2023-11-19T08:26:05;1.80;;;1.67;;
55362;SDS011;41244;49.242;9.060;2023-11-19T08:28:31;1.75;;;1.60;;
55362;SDS011;41244;49.242;9.060;2023-11-19T08:30:59;2.20;;;2.00;;
55362;SDS011;41244;49.242;9.060;2023-11-19T08:33:26;2.85;;;2.40;;
55362;SDS011;41244;49.242;9.060;2023-11-19T08:35:52;3.00;;;2.22;;
55362;SDS011;41244;49.242;9.060;2023-11-19T08:38:17;4.68;;;2.67;;
55362;SDS011;41244;49.242;9.060;2023-11-19T08:40:43;3.17;;;2.00;;
55362;SDS011;41244;49.242;9.060;2023-11-19T08:43:09;2.05;;;1.80;;
55362;SDS011;41244;49.242;9.060;2023-11-19T08:45:35;3.97;;;2.30;;
55362;SDS011;41244;49.242;9.060;2023-11-19T08:48:01;4.63;;;2.00;;
55362;SDS011;41244;49.242;9.060;2023-11-19T08:50:27;2.38;;;2.17;;
55362;SDS011;41244;49.242;9.060;2023-11-19T08:52:52;2.55;;;2.03;;
55362;SDS011;41244;49.242;9.060;2023-11-19T08:55:18;5.25;;;1.67;;
55362;SDS011;41244;49.242;9.060;2023-11-19T08:57:44;3.05;;;2.30;;
55362;SDS011;41244;49.242;9.060;2023-11-19T09:00:10;3.60;;;2.67;;
55362;SDS011;41244;49.242;9.060;2023-11-19T09:02:39;4.22;;;2.70;;
55362;SDS011;41244;49.242;9.060;2023-11-19T09:05:05;2.58;;;2.28;;
55362;SDS011;41244;49.242;9.060;2023-11-19T09:07:32;1.90;;;1.70;;
55362;SDS011;41244;49.242;9.060;2023-11-19T09:09:58;5.72;;;2.28;;
55362;SDS011;41244;49.242;9.060;2023-11-19T09:12:24;2.58;;;2.10;;
55362;SDS011;41244;49.242;9.060;2023-11-19T09:14:50;2.10;;;1.88;;
55362;SDS011;41244;49.242;9.060;2023-11-19T09:17:15;2.03;;;1.90;;
55362;SDS011;41244;49.242;9.060;2023-11-19T09:19:42;3.28;;;2.20;;
55362;SDS011;41244;49.242;9.060;2023-11-19T09:22:08;2.38;;;2.17;;
55362;SDS011;41244;49.242;9.060;2023-11-19T09:24:34;4.13;;;2.35;;
55362;SDS011;41244;49.242;9.060;2023-11-19T09:27:00;3.00;;;2.20;;
55362;SDS011;41244;49.242;9.060;2023-11-19T09:29:25;3.95;;;2.97;;
55362;SDS011;41244;49.242;9.060;2023-11-19T09:31:51;2.40;;;2.17;;
55362;SDS011;41244;49.242;9.060;2023-11-19T09:34:17;3.00;;;2.13;;
55362;SDS011;41244;49.242;9.060;2023-11-19T09:36:43;3.53;;;2.17;;
55362;SDS011;41244;49.242;9.060;2023-11-19T09:39:13;10.23;;;4.45;;
55362;SDS011;41244;49.242;9.060;2023-11-19T09:41:43;6.10;;;2.33;;
55362;SDS011;41244;49.242;9.060;2023-11-19T09:44:10;3.60;;;2.75;;
55362;SDS011;41244;49.242;9.060;2023-11-19T09:46:37;5.47;;;2.33;;
55362;SDS011;41244;49.242;9.060;2023-11-19T09:49:04;2.50;;;2.30;;
55362;SDS011;41244;49.242;9.060;2023-11-19T09:51:32;4.20;;;2.33;;
55362;SDS011;41244;49.242;9.060;2023-11-19T09:53:58;2.72;;;1.98;;
55362;SDS011;41244;49.242;9.060;2023-11-19T09:56:24;2.60;;;2.20;;
55362;SDS011;41244;49.242;9.060;2023-11-19T09:58:50;4.60;;;2.90;;
55362;SDS011;41244;49.242;9.060;2023-11-19T10:01:16;3.92;;;2.05;;
55362;SDS011;41244;49.242;9.060;2023-11-19T10:03:42;2.90;;;2.10;;
55362;SDS011;41244;49.242;9.060;2023-11-19T10:06:09;3.47;;;2.20;;
55362;SDS011;41244;49.242;9.060;2023-11-19T10:08:39;4.32;;;2.20;;
55362;SDS011;41244;49.242;9.060;2023-11-19T10:11:06;2.58;;;1.90;;
55362;SDS011;41244;49.242;9.060;2023-11-19T10:13:33;1.90;;;1.60;;
55362;SDS011;41244;49.242;9.060;2023-11-19T10:16:04;2.33;;;1.92;;
55362;SDS011;41244;49.242;9.060;2023-11-19T10:18:55;2.97;;;1.80;;
55362;SDS011;41244;49.242;9.060;2023-11-19T10:21:21;4.45;;;2.25;;
55362;SDS011;41244;49.242;9.060;2023-11-19T10:23:50;4.88;;;1.98;;
55362;SDS011;41244;49.242;9.060;2023-11-19T10:26:19;2.13;;;1.90;;
55362;SDS011;41244;49.242;9.060;2023-11-19T10:28:49;3.20;;;2.20;;
55362;SDS011;41244;49.242;9.060;2023-11-19T10:31:15;7.18;;;4.05;;
55362;SDS011;41244;49.242;9.060;2023-11-19T10:33:42;3.95;;;3.08;;
55362;SDS011;41244;49.242;9.060;2023-11-19T10:36:10;5.07;;;4.57;;
55362;SDS011;41244;49.242;9.060;2023-11-19T10:38:40;2.88;;;2.65;;
55362;SDS011;41244;49.242;9.060;2023-11-19T10:41:06;3.17;;;2.78;;
55362;SDS011;41244;49.242;9.060;2023-11-19T10:43:44;4.00;;;3.33;;
55362;SDS011;41244;49.242;9.060;2023-11-19T10:46:11;4.63;;;3.00;;
55362;SDS011;41244;49.242;9.060;2023-11-19T10:48:39;3.03;;;2.67;;
55362;SDS011;41244;49.242;9.060;2023-11-19T10:51:05;3.25;;;2.20;;
55362;SDS011;41244;49.242;9.060;2023-11-19T10:53:33;5.35;;;2.20;;
55362;SDS011;41244;49.242;9.060;2023-11-19T10:56:04;2.75;;;1.90;;
55362;SDS011;41244;49.242;9.060;2023-11-19T10:58:35;4.97;;;2.00;;
55362;SDS011;41244;49.242;9.060;2023-11-19T11:01:11;3.13;;;2.03;;
55362;SDS011;41244;49.242;9.060;2023-11-19T11:03:46;2.72;;;2.13;;
55362;SDS011;41244;49.242;9.060;2023-11-19T11:06:11;3.63;;;2.30;;
55362;SDS011;41244;49.242;9.060;2023-11-19T11:08:38;2.85;;;2.10;;
55362;SDS011;41244;49.242;9.060;2023-11-19T11:11:05;2.17;;;1.92;;
55362;SDS011;41244;49.242;9.060;2023-11-19T11:13:33;2.40;;;2.20;;
55362;SDS011;41244;49.242;9.060;2023-11-19T11:15:59;3.67;;;2.10;;
55362;SDS011;41244;49.242;9.060;2023-11-19T11:18:25;3.15;;;1.92;;
55362;SDS011;41244;49.242;9.060;2023-11-19T11:20:52;4.40;;;2.25;;
55362;SDS011;41244;49.242;9.060;2023-11-19T11:26:51;5.57;;;2.00;;
55362;SDS011;41244;49.242;9.060;2023-11-19T11:35:42;4.25;;;2.22;;
55362;SDS011;41244;49.242;9.060;2023-11-19T11:38:21;3.92;;;1.77;;
55362;SDS011;41244;49.242;9.060;2023-11-19T11:43:47;4.03;;;2.13;;
55362;SDS011;41244;49.242;9.060;2023-11-19T11:49:02;2.85;;;2.30;;
55362;SDS011;41244;49.242;9.060;2023-11-19T11:52:14;5.82;;;2.20;;
55362;SDS011;41244;49.242;9.060;2023-11-19T11:57:13;3.15;;;2.28;;
55362;SDS011;41244;49.242;9.060;2023-11-19T12:02:14;3.35;;;2.08;;
55362;SDS011;41244;49.242;9.060;2023-11-19T12:04:51;3.65;;;2.20;;
55362;SDS011;41244;49.242;9.060;2023-11-19T12:07:18;3.38;;;2.10;;
55362;SDS011;41244;49.242;9.060;2023-11-19T12:10:07;2.67;;;1.90;;
55362;SDS011;41244;49.242;9.060;2023-11-19T12:12:38;4.47;;;1.90;;
55362;SDS011;41244;49.242;9.060;2023-11-19T12:15:06;2.65;;;1.90;;
55362;SDS011;41244;49.242;9.060;2023-11-19T12:17:36;7.72;;;2.40;;
55362;SDS011;41244;49.242;9.060;2023-11-19T12:20:07;3.53;;;2.30;;
55362;SDS011;41244;49.242;9.060;2023-11-19T12:22:35;3.40;;;2.20;;
55362;SDS011;41244;49.242;9.060;2023-11-19T12:25:08;3.65;;;2.10;;
55362;SDS011;41244;49.242;9.060;2023-11-19T12:27:35;5.13;;;2.35;;
55362;SDS011;41244;49.242;9.060;2023-11-19T12:30:04;4.18;;;2.00;;
55362;SDS011;41244;49.242;9.060;2023-11-19T12:32:40;5.07;;;2.20;;
55362;SDS011;41244;49.242;9.060;2023-11-19T12:35:10;3.83;;;3.08;;
55362;SDS011;41244;49.242;9.060;2023-11-19T12:37:43;2.03;;;1.88;;
55362;SDS011;41244;49.242;9.060;2023-11-19T12:40:20;2.95;;;2.28;;
55362;SDS011;41244;49.242;9.060;2023-11-19T12:42:49;4.10;;;2.20;;
55362;SDS011;41244;49.242;9.060;2023-11-19T12:45:19;4.22;;;2.40;;
55362;SDS011;41244;49.242;9.060;2023-11-19T12:47:46;3.42;;;2.58;;
55362;SDS011;41244;49.242;9.060;2023-11-19T12:50:13;3.65;;;2.13;;
55362;SDS011;41244;49.242;9.060;2023-11-19T12:52:43;3.13;;;2.30;;
55362;SDS011;41244;49.242;9.060;2023-11-19T12:55:28;2.30;;;2.10;;
55362;SDS011;41244;49.242;9.060;2023-11-19T12:57:55;3.97;;;2.15;;
55362;SDS011;41244;49.242;9.060;2023-11-19T13:00:22;6.05;;;2.08;;
55362;SDS011;41244;49.242;9.060;2023-11-19T13:02:52;4.82;;;2.47;;
55362;SDS011;41244;49.242;9.060;2023-11-19T13:08:03;4.23;;;2.10;;
55362;SDS011;41244;49.242;9.060;2023-11-19T13:10:50;3.05;;;2.20;;
55362;SDS011;41244;49.242;9.060;2023-11-19T13:13:18;2.65;;;2.03;;
55362;SDS011;41244;49.242;9.060;2023-11-19T13:15:44;5.18;;;2.65;;
55362;SDS011;41244;49.242;9.060;2023-11-19T13:18:11;5.38;;;2.50;;
55362;SDS011;41244;49.242;9.060;2023-11-19T13:20:37;4.95;;;2.30;;
55362;SDS011;41244;49.242;9.060;2023-11-19T13:23:03;7.95;;;2.80;;
55362;SDS011;41244;49.242;9.060;2023-11-19T13:25:30;3.28;;;1.75;;
55362;SDS011;41244;49.242;9.060;2023-11-19T13:27:57;2.33;;;2.10;;
55362;SDS011;41244;49.242;9.060;2023-11-19T13:30:23;2.97;;;2.10;;
55362;SDS011;41244;49.242;9.060;2023-11-19T13:32:50;4.10;;;2.20;;
55362;SDS011;41244;49.242;9.060;2023-11-19T13:35:17;12.82;;;2.50;;
55362;SDS011;41244;49.242;9.060;2023-11-19T13:37:44;2.65;;;2.10;;
55362;SDS011;41244;49.242;9.060;2023-11-19T13:40:10;4.47;;;2.20;;
55362;SDS011;41244;49.242;9.060;2023-11-19T13:42:39;3.92;;;2.10;;
55362;SDS011;41244;49.242;9.060;2023-11-19T13:45:09;5.45;;;2.50;;
55362;SDS011;41244;49.242;9.060;2023-11-19T13:47:37;2.28;;;2.08;;
55362;SDS011;41244;49.242;9.060;2023-11-19T13:50:08;5.43;;;2.45;;
55362;SDS011;41244;49.242;9.060;2023-11-19T13:52:35;4.57;;;2.15;;
55362;SDS011;41244;49.242;9.060;2023-11-19T13:55:03;2.53;;;2.30;;
55362;SDS011;41244;49.242;9.060;2023-11-19T13:57:37;3.40;;;3.05;;
55362;SDS011;41244;49.242;9.060;2023-11-19T14:00:04;8.45;;;2.85;;
55362;SDS011;41244;49.242;9.060;2023-11-19T14:02:41;6.82;;;2.60;;
55362;SDS011;41244;49.242;9.060;2023-11-19T14:05:11;3.28;;;2.40;;
55362;SDS011;41244;49.242;9.060;2023-11-19T14:07:37;4.70;;;2.90;;
55362;SDS011;41244;49.242;9.060;2023-11-19T14:10:04;3.00;;;2.20;;
55362;SDS011;41244;49.242;9.060;2023-11-19T14:12:31;3.88;;;2.17;;
55362;SDS011;41244;49.242;9.060;2023-11-19T14:14:58;2.65;;;2.17;;
55362;SDS011;41244;49.242;9.060;2023-11-19T14:17:25;5.50;;;2.38;;
55362;SDS011;41244;49.242;9.060;2023-11-19T14:19:51;6.80;;;2.40;;
55362;SDS011;41244;49.242;9.060;2023-11-19T14:22:17;6.70;;;2.20;;
55362;SDS011;41244;49.242;9.060;2023-11-19T14:24:43;4.45;;;2.22;;
55362;SDS011;41244;49.242;9.060;2023-11-19T14:27:11;5.07;;;2.53;;
55362;SDS011;41244;49.242;9.060;2023-11-19T14:29:37;3.03;;;2.65;;
55362;SDS011;41244;49.242;9.060;2023-11-19T14:32:04;2.85;;;2.38;;
55362;SDS011;41244;49.242;9.060;2023-11-19T14:34:30;6.22;;;2.95;;
55362;SDS011;41244;49.242;9.060;2023-11-19T14:36:57;2.97;;;2.40;;
55362;SDS011;41244;49.242;9.060;2023-11-19T14:39:23;6.25;;;2.60;;
55362;SDS011;41244;49.242;9.060;2023-11-19T14:41:49;3.63;;;2.30;;
55362;SDS011;41244;49.242;9.060;2023-11-19T14:44:15;4.40;;;2.70;;
55362;SDS011;41244;49.242;9.060;2023-11-19T14:46:41;4.38;;;2.60;;
55362;SDS011;41244;49.242;9.060;2023-11-19T14:49:07;3.35;;;2.35;;
55362;SDS011;41244;49.242;9.060;2023-11-19T14:51:36;5.32;;;2.05;;
55362;SDS011;41244;49.242;9.060;2023-11-19T14:54:03;5.03;;;2.38;;
55362;SDS011;41244;49.242;9.060;2023-11-19T14:56:32;4.40;;;2.53;;
55362;SDS011;41244;49.242;9.060;2023-11-19T14:58:57;10.05;;;3.63;;
55362;SDS011;41244;49.242;9.060;2023-11-19T15:01:26;7.15;;;3.08;;
55362;SDS011;41244;49.242;9.060;2023-11-19T15:03:53;4.13;;;2.25;;
55362;SDS011;41244;49.242;9.060;2023-11-19T15:06:22;2.50;;;2.30;;